createdAt,value
2023-05-21T12:13:02.186Z,18.60
2023-05-21T12:15:29.400Z,21.30
2023-05-21T12:17:57.006Z,21.70
2023-05-21T12:20:28.126Z,22.00
2023-05-21T12:22:57.026Z,22.30
2023-05-21T12:25:24.164Z,22.50
2023-05-21T12:27:58.306Z,22.70
2023-05-21T12:30:26.416Z,22.80
2023-05-21T12:32:53.546Z,22.90
2023-05-21T12:35:22.872Z,23.00
2023-05-21T12:37:51.104Z,23.10
2023-05-21T12:40:18.498Z,23.10
2023-05-21T12:42:45.716Z,23.20
2023-05-21T12:45:13.485Z,23.20
2023-05-21T12:47:40.537Z,23.30
2023-05-21T12:50:12.336Z,23.30
2023-05-21T12:52:41.072Z,23.40
2023-05-21T12:55:10.478Z,23.40
2023-05-21T12:57:41.468Z,23.40
2023-05-21T13:00:10.337Z,23.50
2023-05-21T13:02:42.428Z,23.50
2023-05-21T13:05:17.354Z,23.60
2023-05-21T13:07:47.680Z,23.60
2023-05-21T13:10:16.837Z,23.70
2023-05-21T13:12:44.953Z,23.70
2023-05-21T13:15:12.477Z,23.80
2023-05-21T13:17:39.520Z,23.90
2023-05-21T13:20:12.549Z,23.90
2023-05-21T13:22:46.734Z,24.00
2023-05-21T13:25:21.007Z,24.10
2023-05-21T13:27:50.185Z,24.20
2023-05-21T13:30:18.440Z,24.20
2023-05-21T13:32:46.194Z,24.30
2023-05-21T13:35:15.139Z,24.40
2023-05-21T13:37:42.322Z,24.40
2023-05-21T13:40:11.494Z,24.50
2023-05-21T13:42:39.155Z,24.50
2023-05-21T13:45:11.886Z,24.60
2023-05-21T13:47:40.505Z,24.70
2023-05-21T13:50:09.728Z,24.80
2023-05-21T13:52:38.102Z,24.80
2023-05-21T13:55:06.501Z,24.90
2023-05-21T13:57:34.161Z,24.90
2023-05-21T14:00:01.670Z,24.90
2023-05-21T14:02:29.435Z,25.00
2023-05-21T14:04:56.619Z,25.10
2023-05-21T14:07:23.825Z,25.20
2023-05-21T14:09:51.135Z,25.20
2023-05-21T14:12:18.929Z,25.30
2023-05-21T14:14:46.058Z,25.30
2023-05-21T14:17:13.196Z,25.30
2023-05-21T14:19:40.378Z,25.40
2023-05-21T14:22:07.388Z,25.50
2023-05-21T14:24:34.399Z,25.50
2023-05-21T14:27:01.417Z,25.50
2023-05-21T14:29:28.496Z,25.60
2023-05-21T14:31:55.515Z,25.60
2023-05-21T14:34:22.630Z,25.70
2023-05-21T14:36:49.716Z,25.70
2023-05-21T14:39:17.192Z,25.80
2023-05-21T14:41:44.378Z,25.80
2023-05-21T14:44:11.398Z,25.90
2023-05-21T14:46:39.650Z,25.90
2023-05-21T14:49:06.768Z,25.90
2023-05-21T14:51:33.900Z,26.00
2023-05-21T14:54:00.902Z,26.00
2023-05-21T14:56:28.133Z,26.00
2023-05-21T14:58:56.276Z,26.10
2023-05-21T15:01:24.051Z,26.10
2023-05-21T15:03:51.638Z,26.10
2023-05-21T15:06:18.810Z,26.20
2023-05-21T15:08:45.863Z,26.20
2023-05-21T15:11:13.012Z,26.30
2023-05-21T15:13:40.262Z,26.30
2023-05-21T15:16:07.382Z,26.30
2023-05-21T15:18:34.505Z,26.40
2023-05-21T15:21:01.543Z,26.40
2023-05-21T15:23:28.637Z,26.50
2023-05-21T15:25:55.944Z,26.50
2023-05-21T15:28:23.067Z,26.60
2023-05-21T15:30:50.238Z,26.60
2023-05-21T15:33:17.520Z,26.60
2023-05-21T15:35:44.872Z,26.70
2023-05-21T15:38:12.215Z,26.70
2023-05-21T15:40:41.926Z,26.70
2023-05-21T15:43:09.134Z,26.70
2023-05-21T15:45:36.687Z,26.80
2023-05-21T15:48:04.610Z,26.80
2023-05-21T15:50:31.688Z,26.80
2023-05-21T15:52:58.684Z,26.80
2023-05-21T15:55:25.656Z,26.80
2023-05-21T15:57:52.676Z,26.80
2023-05-21T16:00:19.733Z,26.90
2023-05-21T16:02:46.834Z,26.90
2023-05-21T16:05:13.908Z,26.90
2023-05-21T16:07:40.900Z,26.90
2023-05-21T16:10:10.168Z,26.90
2023-05-21T16:12:37.741Z,26.90
2023-05-21T16:15:05.988Z,27.00
2023-05-21T16:17:33.000Z,26.90
2023-05-21T16:20:00.027Z,26.90
2023-05-21T16:22:27.109Z,26.90
2023-05-21T16:24:54.685Z,26.90
2023-05-21T16:27:21.809Z,27.00
2023-05-21T16:29:48.941Z,27.00
2023-05-21T16:32:16.416Z,27.00
2023-05-21T16:34:43.493Z,27.00
2023-05-21T16:37:11.207Z,27.00
2023-05-21T16:39:38.728Z,27.00
2023-05-21T16:42:05.873Z,26.90
2023-05-21T16:44:32.864Z,26.90
2023-05-21T16:47:01.352Z,26.90
2023-05-21T16:49:28.445Z,26.90
2023-05-21T16:51:55.508Z,26.90
2023-05-21T16:54:22.650Z,26.90
2023-05-21T16:56:49.731Z,26.90
2023-05-21T16:59:16.894Z,26.80
2023-05-21T17:01:44.044Z,26.80
2023-05-21T17:04:11.192Z,26.80
2023-05-21T17:06:38.182Z,26.80
2023-05-21T17:09:05.204Z,26.80
2023-05-21T17:11:32.317Z,26.80
2023-05-21T17:13:59.481Z,26.80
2023-05-21T17:16:26.793Z,26.80
2023-05-21T17:18:53.863Z,26.80
2023-05-21T17:21:20.859Z,26.70
2023-05-21T17:23:47.854Z,26.70
2023-05-21T17:26:15.154Z,26.70
2023-05-21T17:28:43.067Z,26.70
2023-05-21T17:31:10.257Z,26.70
2023-05-21T17:33:37.984Z,26.70
2023-05-21T17:36:05.344Z,26.70
2023-05-21T17:38:32.493Z,26.70
2023-05-21T17:40:59.596Z,26.70
2023-05-21T17:43:31.727Z,26.70
2023-05-21T17:45:58.725Z,26.60
2023-05-21T17:48:26.074Z,26.60
2023-05-21T17:50:53.760Z,26.60
2023-05-21T17:53:21.302Z,26.60
2023-05-21T17:55:48.470Z,26.60
2023-05-21T17:58:15.659Z,26.60
2023-05-21T18:00:42.830Z,26.60
2023-05-21T18:03:10.027Z,26.50
2023-05-21T18:05:37.391Z,26.50
2023-05-21T18:08:04.866Z,26.50
2023-05-21T18:10:32.010Z,26.50
2023-05-21T18:12:59.289Z,26.50
2023-05-21T18:15:26.306Z,26.50
2023-05-21T18:17:53.375Z,26.40
2023-05-21T18:20:20.405Z,26.40
2023-05-21T18:22:47.495Z,26.40
2023-05-21T18:25:14.568Z,26.40
2023-05-21T18:27:41.897Z,26.30
2023-05-21T18:30:09.652Z,26.30
2023-05-21T18:32:39.682Z,26.30
2023-05-21T18:35:11.478Z,26.30
2023-05-21T18:37:42.090Z,26.30
2023-05-21T18:40:10.666Z,26.20
2023-05-21T18:42:38.313Z,26.20
2023-05-21T18:45:10.192Z,26.20
2023-05-21T18:47:39.176Z,26.20
2023-05-21T18:50:14.240Z,26.10
2023-05-21T18:52:41.965Z,26.10
2023-05-21T18:55:09.577Z,26.10
2023-05-21T18:57:38.057Z,26.10
2023-05-21T19:00:09.554Z,26.00
2023-05-21T19:02:37.351Z,26.00
2023-05-21T19:05:05.105Z,26.00
2023-05-21T19:07:32.239Z,26.00
2023-05-21T19:10:00.301Z,25.90
2023-05-21T19:12:29.286Z,25.90
2023-05-21T19:14:56.451Z,25.90
2023-05-21T19:17:23.996Z,25.90
2023-05-21T19:19:55.729Z,25.80
2023-05-21T19:22:27.047Z,25.80
2023-05-21T19:24:54.773Z,25.80
2023-05-21T19:27:22.140Z,25.70
2023-05-21T19:29:50.089Z,25.70
2023-05-21T19:32:17.235Z,25.70
2023-05-21T19:34:44.198Z,25.60
2023-05-21T19:37:11.405Z,25.60
2023-05-21T19:39:43.293Z,25.60
2023-05-21T19:42:10.917Z,25.50
2023-05-21T19:44:40.973Z,25.50
2023-05-21T19:47:08.656Z,25.50
2023-05-21T19:49:35.834Z,25.40
2023-05-21T19:52:02.909Z,25.40
2023-05-21T19:54:29.955Z,25.40
2023-05-21T19:56:57.684Z,25.30
2023-05-21T19:59:24.819Z,25.30
2023-05-21T20:01:51.754Z,25.30
2023-05-21T20:04:18.830Z,25.30
2023-05-21T20:06:45.963Z,25.20
2023-05-21T20:09:13.669Z,25.20
2023-05-21T20:11:42.229Z,25.20
2023-05-21T20:14:09.450Z,25.10
2023-05-21T20:16:37.212Z,25.10
2023-05-21T20:19:04.549Z,25.10
2023-05-21T20:21:31.830Z,25.00
2023-05-21T20:23:58.945Z,25.00
2023-05-21T20:26:26.374Z,25.00
2023-05-21T20:28:53.923Z,25.00
2023-05-21T20:31:21.745Z,24.90
2023-05-21T20:33:50.794Z,24.90
2023-05-21T20:36:18.436Z,24.90
2023-05-21T20:38:45.622Z,24.90
2023-05-21T20:41:13.710Z,24.80
2023-05-21T20:43:40.803Z,24.80
2023-05-21T20:46:08.020Z,24.80
2023-05-21T20:48:35.550Z,24.80
2023-05-21T20:51:06.142Z,24.70
2023-05-21T20:53:33.695Z,24.70
2023-05-21T20:56:01.663Z,24.70
2023-05-21T20:58:28.873Z,24.60
2023-05-21T21:00:55.841Z,24.60
2023-05-21T21:03:22.991Z,24.60
2023-05-21T21:05:50.667Z,24.50
2023-05-21T21:08:17.693Z,24.50
2023-05-21T21:10:46.881Z,24.50
2023-05-21T21:13:14.592Z,24.40
2023-05-21T21:15:43.606Z,24.40
2023-05-21T21:18:12.470Z,24.40
2023-05-21T21:20:41.342Z,24.30
2023-05-21T21:23:09.017Z,24.30
2023-05-21T21:25:36.419Z,24.20
2023-05-21T21:28:03.666Z,24.20
2023-05-21T21:30:31.109Z,24.20
2023-05-21T21:32:58.168Z,24.10
2023-05-21T21:35:25.392Z,24.10
2023-05-21T21:37:52.384Z,24.00
2023-05-21T21:40:19.443Z,24.00
2023-05-21T21:42:46.580Z,24.00
2023-05-21T21:45:13.608Z,23.90
2023-05-21T21:47:41.027Z,23.90
2023-05-21T21:50:08.745Z,23.90
2023-05-21T21:52:39.909Z,23.80
2023-05-21T21:55:09.745Z,23.80
2023-05-21T21:57:38.833Z,23.70
2023-05-21T22:00:11.674Z,23.70
2023-05-21T22:02:40.184Z,23.70
2023-05-21T22:05:08.699Z,23.70
2023-05-21T22:07:38.557Z,23.70
2023-05-21T22:10:06.509Z,23.60
2023-05-21T22:12:33.953Z,23.60
2023-05-21T22:15:05.280Z,23.50
2023-05-21T22:17:32.754Z,23.50
2023-05-21T22:20:00.967Z,23.50
2023-05-21T22:22:28.293Z,23.40
2023-05-21T22:24:55.380Z,23.40
2023-05-21T22:27:22.338Z,23.40
2023-05-21T22:29:49.272Z,23.40
2023-05-21T22:32:16.376Z,23.30
2023-05-21T22:34:43.444Z,23.30
2023-05-21T22:37:11.037Z,23.30
2023-05-21T22:39:38.150Z,23.30
2023-05-21T22:42:05.863Z,23.20
2023-05-21T22:44:32.912Z,23.20
2023-05-21T22:47:00.263Z,23.20
2023-05-21T22:49:27.577Z,23.20
2023-05-21T22:51:54.585Z,23.10
2023-05-21T22:54:21.789Z,23.10
2023-05-21T22:56:49.786Z,23.10
2023-05-21T22:59:16.758Z,23.10
2023-05-21T23:01:43.873Z,23.00
2023-05-21T23:04:10.940Z,23.00
2023-05-21T23:06:38.097Z,23.00
2023-05-21T23:09:05.157Z,22.90
2023-05-21T23:11:32.376Z,22.90
2023-05-21T23:13:59.387Z,22.90
2023-05-21T23:16:26.883Z,22.90
2023-05-21T23:18:54.483Z,22.90
2023-05-21T23:21:21.877Z,22.80
2023-05-21T23:23:49.123Z,22.80
2023-05-21T23:26:16.620Z,22.70
2023-05-21T23:28:44.216Z,22.70
2023-05-21T23:31:11.489Z,22.70
2023-05-21T23:33:38.567Z,22.70
2023-05-21T23:36:06.121Z,22.70
2023-05-21T23:38:33.205Z,22.60
2023-05-21T23:41:00.326Z,22.60
2023-05-21T23:43:27.345Z,22.60
2023-05-21T23:45:54.556Z,22.50
2023-05-21T23:48:21.633Z,22.50
2023-05-21T23:50:48.900Z,22.50
2023-05-21T23:53:16.000Z,22.50
2023-05-21T23:55:43.103Z,22.50
2023-05-21T23:58:10.607Z,22.40
